Time;durP1;ratioP1;P1;durP2;ratioP2;P2;SDS_P1;SDS_P2;PMS_P1;PMS_P2;Temp;Humidity;BMP_temperature;BMP_pressure;BME280_temperature;BME280_humidity;BME280_pressure;Samples;Min_cycle;Max_cycle;Signal;HPM_P1;HPM_P2
2023/08/05 00:00:22;;;;;;;5.60;3.83;;;14.60;99.90;;;;;;5091914;28;20177;-72
2023/08/05 00:02:47;;;;;;;7.43;3.47;;;14.60;99.90;;;;;;5091291;28;20184;-72
2023/08/05 00:05:13;;;;;;;6.10;3.90;;;14.50;99.90;;;;;;5091019;28;20744;-73
2023/08/05 00:07:38;;;;;;;4.10;3.00;;;14.50;99.90;;;;;;5091660;28;20176;-72
2023/08/05 00:10:04;;;;;;;9.27;4.73;;;14.50;99.90;;;;;;5084745;28;20295;-72
2023/08/05 00:12:30;;;;;;;7.47;4.47;;;14.50;99.90;;;;;;5079821;28;20218;-73
2023/08/05 00:14:55;;;;;;;8.93;3.80;;;14.40;99.90;;;;;;5089173;28;20487;-73
2023/08/05 00:17:21;;;;;;;8.80;4.30;;;14.40;99.90;;;;;;5090479;28;20211;-73
2023/08/05 00:19:47;;;;;;;10.90;3.37;;;14.50;99.90;;;;;;5091184;28;20217;-73
2023/08/05 00:22:12;;;;;;;9.83;3.73;;;14.50;99.90;;;;;;5091210;28;20304;-73
2023/08/05 00:24:39;;;;;;;7.00;3.80;;;14.50;99.90;;;;;;5090664;28;20558;-73
2023/08/05 00:27:05;;;;;;;7.20;3.13;;;14.50;99.90;;;;;;5090017;28;20227;-73
2023/08/05 00:29:31;;;;;;;7.00;4.40;;;14.40;99.90;;;;;;5091248;28;20410;-73
2023/08/05 00:31:57;;;;;;;8.50;4.40;;;14.40;99.90;;;;;;5087088;28;20808;-73
2023/08/05 00:34:22;;;;;;;8.60;4.10;;;14.40;99.90;;;;;;5089449;28;20293;-72
2023/08/05 00:36:48;;;;;;;7.83;4.30;;;14.40;99.90;;;;;;5091180;28;20180;-73
2023/08/05 00:39:14;;;;;;;10.80;3.60;;;14.30;99.90;;;;;;5090964;28;20561;-73
2023/08/05 00:41:39;;;;;;;5.27;3.37;;;14.30;99.90;;;;;;5091068;28;20287;-72
2023/08/05 00:44:05;;;;;;;9.93;4.13;;;14.30;99.90;;;;;;5090312;28;20789;-72
2023/08/05 00:46:31;;;;;;;8.33;4.23;;;14.40;99.90;;;;;;5091219;28;20212;-72
2023/08/05 00:48:57;;;;;;;5.70;3.60;;;14.30;99.90;;;;;;5091100;28;20176;-73
2023/08/05 00:51:23;;;;;;;13.07;4.30;;;14.40;99.90;;;;;;5091235;28;20407;-72
2023/08/05 00:53:48;;;;;;;10.00;4.20;;;14.30;99.90;;;;;;5091038;28;20258;-72
2023/08/05 00:56:15;;;;;;;5.23;3.80;;;14.30;99.90;;;;;;5086677;28;20181;-72
2023/08/05 00:58:44;;;;;;;8.37;3.70;;;14.30;99.90;;;;;;5093363;28;20256;-72
2023/08/05 01:01:10;;;;;;;6.60;3.50;;;14.20;99.90;;;;;;5094537;28;20415;-72
2023/08/05 01:03:37;;;;;;;9.30;3.67;;;14.10;99.90;;;;;;5094187;28;20420;-73
2023/08/05 01:06:05;;;;;;;5.97;3.47;;;14.00;99.90;;;;;;5094164;28;20545;-73
2023/08/05 01:08:32;;;;;;;21.13;4.40;;;14.00;99.90;;;;;;5085575;28;20733;-73
2023/08/05 01:11:00;;;;;;;8.90;4.40;;;14.00;99.90;;;;;;5086368;28;20414;-73
2023/08/05 01:13:25;;;;;;;9.20;3.97;;;14.00;99.90;;;;;;5093866;28;20777;-73
2023/08/05 01:15:51;;;;;;;10.03;4.73;;;14.00;99.90;;;;;;5094676;28;20468;-73
2023/08/05 01:18:17;;;;;;;10.13;5.23;;;13.90;99.90;;;;;;5094442;28;20212;-73
2023/08/05 01:20:46;;;;;;;7.50;3.73;;;13.90;99.90;;;;;;5094663;28;20245;-73
2023/08/05 01:23:29;;;;;;;6.60;4.20;;;13.90;99.90;;;;;;5093920;28;20835;-73
2023/08/05 01:25:55;;;;;;;8.33;2.90;;;13.90;99.90;;;;;;5094100;28;20511;-73
2023/08/05 01:28:21;;;;;;;11.90;4.30;;;13.80;99.90;;;;;;5094445;28;21298;-73
2023/08/05 01:30:48;;;;;;;3.93;2.90;;;13.90;99.90;;;;;;5094500;28;20426;-73
2023/08/05 01:33:14;;;;;;;6.00;3.80;;;13.90;99.90;;;;;;5093829;28;20422;-73
2023/08/05 01:35:49;;;;;;;7.37;3.87;;;13.80;99.90;;;;;;5094214;28;20486;-72
2023/08/05 01:38:15;;;;;;;7.80;3.60;;;13.80;99.90;;;;;;5094476;28;20410;-72
2023/08/05 01:40:41;;;;;;;8.60;3.70;;;13.80;99.90;;;;;;5094465;28;21138;-72
2023/08/05 01:43:07;;;;;;;6.83;4.10;;;13.80;99.90;;;;;;5093549;28;20207;-73
2023/08/05 01:45:33;;;;;;;6.90;3.27;;;13.80;99.90;;;;;;5091137;28;20208;-73
2023/08/05 01:47:59;;;;;;;13.93;3.40;;;13.70;99.90;;;;;;5083459;28;20418;-73
2023/08/05 01:50:24;;;;;;;6.10;3.03;;;13.70;99.90;;;;;;5094112;28;20422;-72
2023/08/05 01:52:51;;;;;;;4.67;3.07;;;13.70;99.90;;;;;;5093769;28;20180;-73
2023/08/05 01:55:17;;;;;;;7.40;3.40;;;13.70;99.90;;;;;;5093711;28;20184;-73
2023/08/05 01:57:43;;;;;;;8.27;3.03;;;13.70;99.90;;;;;;5085687;28;20426;-73
2023/08/05 02:00:09;;;;;;;14.30;4.40;;;13.70;99.90;;;;;;5093904;28;20184;-73
2023/08/05 02:02:34;;;;;;;6.27;3.60;;;13.80;99.90;;;;;;5093661;28;20188;-73
2023/08/05 02:05:00;;;;;;;9.50;3.33;;;13.80;99.90;;;;;;5093397;28;20204;-73
2023/08/05 02:07:25;;;;;;;5.87;3.23;;;13.80;99.90;;;;;;5093184;28;20177;-73
2023/08/05 02:09:51;;;;;;;3.87;2.53;;;13.80;99.90;;;;;;5093272;28;20287;-73
2023/08/05 02:12:17;;;;;;;7.83;4.10;;;13.90;99.90;;;;;;5093004;28;20181;-72
2023/08/05 02:14:42;;;;;;;5.70;3.27;;;13.80;99.90;;;;;;5093064;28;20246;-73
2023/08/05 02:17:08;;;;;;;7.43;3.53;;;13.80;99.90;;;;;;5093559;28;20245;-73
2023/08/05 02:19:33;;;;;;;11.23;4.00;;;13.80;99.90;;;;;;5093535;28;20188;-73
2023/08/05 02:21:59;;;;;;;6.27;3.13;;;13.80;99.90;;;;;;5093275;28;20237;-73
2023/08/05 02:24:24;;;;;;;8.60;3.27;;;13.80;99.90;;;;;;5093210;28;20741;-73
2023/08/05 02:26:50;;;;;;;7.77;3.20;;;13.80;99.90;;;;;;5093370;28;20200;-72
2023/08/05 02:29:16;;;;;;;5.50;3.03;;;13.70;99.90;;;;;;5093291;28;20504;-73
2023/08/05 02:31:41;;;;;;;12.77;4.40;;;13.70;99.90;;;;;;5091868;28;20181;-73
2023/08/05 02:34:07;;;;;;;7.50;3.00;;;13.70;99.90;;;;;;5088889;28;20188;-72
2023/08/05 02:36:33;;;;;;;7.20;3.70;;;13.70;99.90;;;;;;5093233;28;20188;-72
2023/08/05 02:38:58;;;;;;;12.90;3.33;;;13.70;99.90;;;;;;5092965;28;20300;-72
2023/08/05 02:41:24;;;;;;;5.77;2.93;;;13.70;99.90;;;;;;5092966;28;20192;-72
2023/08/05 02:43:49;;;;;;;5.40;3.67;;;13.70;99.90;;;;;;5092289;28;20215;-72
2023/08/05 02:46:15;;;;;;;8.70;3.13;;;13.70;99.90;;;;;;5091744;28;20563;-72
2023/08/05 02:48:40;;;;;;;6.20;2.70;;;13.80;99.90;;;;;;5092713;28;20195;-73
2023/08/05 02:51:06;;;;;;;5.23;3.03;;;13.70;99.90;;;;;;5092975;28;20216;-73
2023/08/05 02:53:31;;;;;;;6.50;3.80;;;13.80;99.90;;;;;;5092062;28;20185;-73
2023/08/05 02:55:57;;;;;;;5.07;2.87;;;13.80;99.90;;;;;;5090673;28;20183;-73
2023/08/05 02:58:23;;;;;;;8.43;2.77;;;13.80;99.90;;;;;;5087927;28;20318;-73
2023/08/05 03:00:48;;;;;;;5.30;3.07;;;13.80;99.90;;;;;;5092706;28;20548;-73
2023/08/05 03:03:15;;;;;;;10.10;3.30;;;13.80;99.90;;;;;;5078551;28;20184;-73
2023/08/05 03:05:41;;;;;;;5.07;3.07;;;13.80;99.90;;;;;;5092976;28;20349;-72
2023/08/05 03:08:06;;;;;;;7.00;3.30;;;13.80;99.90;;;;;;5090373;28;20956;-72
2023/08/05 03:10:32;;;;;;;7.40;3.40;;;13.80;99.90;;;;;;5088203;28;20615;-72
2023/08/05 03:12:58;;;;;;;5.90;3.40;;;13.80;99.90;;;;;;5092046;28;20189;-73
2023/08/05 03:15:27;;;;;;;7.10;4.07;;;13.80;99.90;;;;;;5092667;28;20253;-73
2023/08/05 03:17:53;;;;;;;6.83;3.10;;;13.80;99.90;;;;;;5092443;28;20189;-73
2023/08/05 03:20:30;;;;;;;6.00;3.17;;;13.80;99.90;;;;;;5092882;28;20893;-73
2023/08/05 03:22:56;;;;;;;4.13;2.40;;;13.90;99.90;;;;;;5088187;28;20191;-73
2023/08/05 03:25:23;;;;;;;4.20;2.60;;;13.90;99.90;;;;;;5082916;28;20902;-73
2023/08/05 03:27:50;;;;;;;12.27;3.10;;;13.90;99.90;;;;;;5091704;28;20808;-73
2023/08/05 03:30:16;;;;;;;7.40;3.30;;;13.90;99.90;;;;;;5092190;28;20418;-72
2023/08/05 03:32:42;;;;;;;6.57;4.10;;;13.90;99.90;;;;;;5089985;28;20487;-72
2023/08/05 03:35:08;;;;;;;4.97;3.00;;;13.90;99.90;;;;;;5085879;28;20414;-73
2023/08/05 03:37:33;;;;;;;4.73;2.73;;;13.90;99.90;;;;;;5092258;28;20201;-73
2023/08/05 03:39:59;;;;;;;6.97;4.03;;;13.90;99.90;;;;;;5091506;28;20185;-73
2023/08/05 03:42:25;;;;;;;7.13;3.30;;;13.90;99.90;;;;;;5091857;28;20643;-73
2023/08/05 03:44:51;;;;;;;5.90;3.33;;;13.90;99.90;;;;;;5079418;28;20279;-73
2023/08/05 03:47:16;;;;;;;5.37;3.17;;;13.90;99.90;;;;;;5086512;28;20229;-74
2023/08/05 03:49:42;;;;;;;6.00;2.73;;;13.90;99.90;;;;;;5092519;28;20222;-73
2023/08/05 03:52:08;;;;;;;27.90;3.47;;;13.90;99.90;;;;;;5092531;28;20183;-73
2023/08/05 03:54:34;;;;;;;7.27;2.70;;;13.90;99.90;;;;;;5091231;28;20180;-72
2023/08/05 03:57:02;;;;;;;5.93;3.20;;;13.90;99.90;;;;;;5084616;28;20427;-72
2023/08/05 03:59:28;;;;;;;5.67;3.60;;;13.90;99.90;;;;;;5083914;28;20184;-72
2023/08/05 04:01:54;;;;;;;5.80;3.27;;;13.90;99.90;;;;;;5091955;28;21002;-72
2023/08/05 04:04:19;;;;;;;9.23;3.97;;;14.00;99.90;;;;;;5081590;28;20183;-72
2023/08/05 04:06:45;;;;;;;4.63;2.73;;;14.00;99.90;;;;;;5086367;28;20209;-72
2023/08/05 04:09:12;;;;;;;5.63;3.23;;;14.00;99.90;;;;;;5075317;28;20214;-72
2023/08/05 04:11:38;;;;;;;6.00;3.17;;;14.00;99.90;;;;;;5075680;28;20458;-72
2023/08/05 04:14:04;;;;;;;5.13;3.07;;;14.00;99.90;;;;;;5070385;28;20492;-73
2023/08/05 04:16:30;;;;;;;9.43;3.37;;;14.00;99.90;;;;;;5073016;28;20200;-73
2023/08/05 04:18:57;;;;;;;4.60;2.97;;;14.00;99.90;;;;;;5076780;28;20549;-72
2023/08/05 04:21:27;;;;;;;7.00;3.90;;;14.00;99.90;;;;;;5078496;28;20199;-72
2023/08/05 04:23:54;;;;;;;7.60;4.10;;;14.00;99.90;;;;;;5091096;28;20509;-72
2023/08/05 04:26:20;;;;;;;7.43;3.23;;;14.00;99.90;;;;;;5091347;28;20805;-72
2023/08/05 04:28:46;;;;;;;6.53;3.60;;;13.90;99.90;;;;;;5090902;28;20501;-72
2023/08/05 04:31:12;;;;;;;6.03;3.33;;;13.90;99.90;;;;;;5093102;28;20410;-72
2023/08/05 04:33:37;;;;;;;6.30;2.80;;;13.90;99.90;;;;;;5091687;28;20203;-72
2023/08/05 04:36:03;;;;;;;13.37;3.30;;;13.90;99.90;;;;;;5098100;28;20184;-72
2023/08/05 04:38:29;;;;;;;6.03;3.20;;;14.00;99.90;;;;;;5090060;28;20199;-72
2023/08/05 04:40:54;;;;;;;5.10;3.00;;;14.00;99.90;;;;;;5098404;28;20305;-72
2023/08/05 04:43:20;;;;;;;8.17;3.67;;;14.00;99.90;;;;;;5097502;28;20263;-72
2023/08/05 04:45:50;;;;;;;8.07;3.60;;;14.00;99.90;;;;;;5098306;28;20207;-72
2023/08/05 04:48:16;;;;;;;9.57;3.80;;;14.00;99.90;;;;;;5098387;28;20625;-72
2023/08/05 04:50:42;;;;;;;7.90;3.67;;;14.00;99.90;;;;;;5098216;28;20419;-72
2023/08/05 04:53:08;;;;;;;8.10;3.70;;;14.00;99.90;;;;;;5098379;28;20414;-71
2023/08/05 04:55:34;;;;;;;5.73;3.53;;;14.00;99.90;;;;;;5098023;28;20309;-72
2023/08/05 04:58:00;;;;;;;5.33;3.00;;;14.00;99.90;;;;;;5097542;28;20513;-72
2023/08/05 05:00:25;;;;;;;6.70;3.33;;;14.00;99.90;;;;;;5097784;28;20185;-72
2023/08/05 05:02:51;;;;;;;4.80;3.27;;;14.00;99.90;;;;;;5086491;28;20693;-72
2023/08/05 05:05:17;;;;;;;10.10;4.57;;;14.10;99.90;;;;;;5093100;28;20236;-72
2023/08/05 05:07:43;;;;;;;6.07;4.00;;;14.00;99.90;;;;;;5089686;28;20184;-74
2023/08/05 05:10:09;;;;;;;7.77;3.47;;;14.00;99.90;;;;;;5094149;28;20417;-74
2023/08/05 05:12:34;;;;;;;6.13;3.80;;;14.10;99.90;;;;;;5092693;28;20180;-74
2023/08/05 05:15:00;;;;;;;7.60;3.60;;;14.10;99.90;;;;;;5097085;28;20188;-73
2023/08/05 05:17:32;;;;;;;6.60;4.20;;;14.10;99.90;;;;;;5090687;28;20191;-73
2023/08/05 05:19:57;;;;;;;5.03;3.10;;;14.10;99.90;;;;;;5096624;28;20176;-73
2023/08/05 05:22:23;;;;;;;8.07;2.97;;;14.10;99.90;;;;;;5097804;28;20425;-73
2023/08/05 05:24:50;;;;;;;9.70;3.97;;;14.10;99.90;;;;;;5090840;28;20192;-73
2023/08/05 05:27:17;;;;;;;12.63;4.10;;;14.20;99.90;;;;;;5090660;28;20979;-73
2023/08/05 05:29:43;;;;;;;8.73;4.00;;;14.20;99.90;;;;;;5097851;28;20428;-73
2023/08/05 05:32:10;;;;;;;10.27;3.43;;;14.20;99.90;;;;;;5092482;28;21035;-73
2023/08/05 05:34:35;;;;;;;12.33;4.13;;;14.20;99.90;;;;;;5097303;28;20452;-73
2023/08/05 05:37:01;;;;;;;7.10;3.27;;;14.30;99.90;;;;;;5091268;28;20430;-73
2023/08/05 05:39:27;;;;;;;6.90;3.93;;;14.20;99.90;;;;;;5098092;28;20190;-73
2023/08/05 05:41:55;;;;;;;7.10;3.40;;;14.20;99.90;;;;;;5097130;28;20901;-73
2023/08/05 05:44:24;;;;;;;4.73;3.10;;;14.30;99.90;;;;;;5093074;28;20418;-73
2023/08/05 05:46:50;;;;;;;5.80;3.10;;;14.30;99.90;;;;;;5094596;28;20959;-74
2023/08/05 05:49:15;;;;;;;11.70;3.47;;;14.30;99.90;;;;;;5094276;28;20523;-73
2023/08/05 05:51:45;;;;;;;8.43;3.87;;;14.30;99.90;;;;;;5094349;28;20177;-73
2023/08/05 05:54:11;;;;;;;4.47;2.93;;;14.30;99.90;;;;;;5093728;28;20205;-73
2023/08/05 05:56:37;;;;;;;5.57;3.37;;;14.30;99.90;;;;;;5092976;28;20888;-73
2023/08/05 05:59:02;;;;;;;16.80;3.67;;;14.30;99.90;;;;;;5081459;28;20181;-74
2023/08/05 06:01:28;;;;;;;9.33;3.20;;;14.40;99.90;;;;;;5087805;28;20222;-73
2023/08/05 06:03:54;;;;;;;4.43;2.90;;;14.40;99.90;;;;;;5083193;28;20212;-74
2023/08/05 06:06:19;;;;;;;11.53;3.73;;;14.40;99.90;;;;;;5089432;28;20574;-73
2023/08/05 06:08:45;;;;;;;5.70;3.47;;;14.40;99.90;;;;;;5086425;28;20181;-73
2023/08/05 06:11:11;;;;;;;8.13;3.70;;;14.50;99.90;;;;;;5092958;28;20607;-73
2023/08/05 06:13:36;;;;;;;10.33;4.17;;;14.50;99.90;;;;;;5072794;28;20181;-74
2023/08/05 06:16:02;;;;;;;5.87;3.27;;;14.50;99.90;;;;;;5093047;28;20211;-74
2023/08/05 06:18:28;;;;;;;7.27;3.80;;;14.60;99.90;;;;;;5093516;28;20215;-74
2023/08/05 06:20:53;;;;;;;9.80;3.67;;;14.60;99.90;;;;;;5093875;28;20188;-73
2023/08/05 06:23:19;;;;;;;6.23;3.33;;;14.60;99.90;;;;;;5093416;28;20767;-73
2023/08/05 06:25:46;;;;;;;4.67;2.87;;;14.70;99.90;;;;;;5086870;28;20204;-73
2023/08/05 06:28:11;;;;;;;7.67;3.27;;;14.80;99.90;;;;;;5088238;28;20184;-73
2023/08/05 06:30:45;;;;;;;5.10;3.00;;;14.80;99.90;;;;;;5093767;28;20423;-73
2023/08/05 06:33:11;;;;;;;6.13;3.17;;;14.90;99.90;;;;;;5093195;28;20183;-74
2023/08/05 06:35:38;;;;;;;8.63;3.60;;;14.90;99.90;;;;;;5093464;28;20426;-74
2023/08/05 06:38:04;;;;;;;3.87;2.77;;;15.00;99.90;;;;;;5093357;28;20454;-74
2023/08/05 06:40:29;;;;;;;5.93;3.17;;;15.10;99.90;;;;;;5093491;28;20454;-73
2023/08/05 06:42:56;;;;;;;12.73;2.97;;;15.10;99.90;;;;;;5082849;28;20547;-73
2023/08/05 06:45:22;;;;;;;8.90;3.23;;;15.40;99.90;;;;;;5092766;28;20200;-73
2023/08/05 06:47:48;;;;;;;5.93;2.77;;;15.30;99.90;;;;;;5093209;28;20422;-73
2023/08/05 06:50:14;;;;;;;7.50;3.00;;;15.30;99.90;;;;;;5093528;28;21128;-73
2023/08/05 06:52:40;;;;;;;10.70;3.93;;;15.40;99.90;;;;;;5093249;28;20185;-74
2023/08/05 06:55:05;;;;;;;6.17;2.90;;;15.40;99.90;;;;;;5092504;28;20193;-73
2023/08/05 06:57:31;;;;;;;5.20;2.93;;;15.60;99.90;;;;;;5092946;28;20195;-74
2023/08/05 06:59:58;;;;;;;9.60;3.97;;;15.60;99.90;;;;;;5092723;28;20188;-73
2023/08/05 07:02:24;;;;;;;4.17;2.33;;;15.60;99.90;;;;;;5092972;28;20279;-73
2023/08/05 07:04:50;;;;;;;4.60;2.67;;;15.60;99.90;;;;;;5091910;28;20983;-72
2023/08/05 07:07:16;;;;;;;7.63;2.77;;;15.70;99.90;;;;;;5092595;28;20497;-73
2023/08/05 07:09:41;;;;;;;4.40;2.93;;;15.80;99.90;;;;;;5092945;28;20208;-73
2023/08/05 07:12:07;;;;;;;7.23;3.40;;;16.00;99.90;;;;;;5092607;28;20594;-73
2023/08/05 07:14:33;;;;;;;5.67;2.83;;;16.20;99.90;;;;;;5088107;28;20564;-73
2023/08/05 07:16:59;;;;;;;3.57;2.60;;;16.40;99.90;;;;;;5090497;28;20188;-73
2023/08/05 07:19:24;;;;;;;3.83;2.40;;;16.50;99.90;;;;;;5092836;28;20574;-73
2023/08/05 07:21:50;;;;;;;4.67;2.37;;;16.60;99.90;;;;;;5082372;28;20653;-73
2023/08/05 07:24:18;;;;;;;5.33;2.10;;;16.70;99.90;;;;;;5087334;28;20275;-73
2023/08/05 07:26:43;;;;;;;4.23;2.40;;;16.70;99.90;;;;;;5092927;28;20245;-73
2023/08/05 07:29:09;;;;;;;5.40;2.70;;;16.80;99.90;;;;;;5092123;28;20426;-74
2023/08/05 07:31:34;;;;;;;4.17;2.57;;;16.90;99.90;;;;;;5091747;28;20181;-73
2023/08/05 07:34:00;;;;;;;10.50;3.13;;;16.90;99.90;;;;;;5087057;28;20180;-73
2023/08/05 07:36:27;;;;;;;3.70;2.57;;;16.80;99.90;;;;;;5092530;28;20304;-73
2023/08/05 07:38:54;;;;;;;5.93;2.17;;;16.90;99.90;;;;;;5092345;28;20180;-73
2023/08/05 07:41:22;;;;;;;4.67;2.83;;;16.90;99.90;;;;;;5092605;28;20797;-73
2023/08/05 07:43:47;;;;;;;4.93;2.90;;;16.90;99.90;;;;;;5091593;28;20415;-73
2023/08/05 07:46:13;;;;;;;4.40;2.50;;;17.10;99.90;;;;;;5092123;28;20816;-73
2023/08/05 07:48:39;;;;;;;5.27;2.13;;;17.30;99.90;;;;;;5092127;28;20477;-73
2023/08/05 07:51:06;;;;;;;2.93;1.70;;;17.40;99.90;;;;;;5092295;28;20188;-73
2023/08/05 07:53:35;;;;;;;14.37;2.60;;;17.60;99.90;;;;;;5091838;28;20458;-73
2023/08/05 07:56:11;;;;;;;4.13;2.03;;;18.00;99.90;;;;;;5092356;28;20415;-73
2023/08/05 07:58:40;;;;;;;2.70;1.70;;;18.20;99.90;;;;;;5091956;28;20429;-73
2023/08/05 08:01:06;;;;;;;5.13;2.13;;;18.30;99.90;;;;;;5092432;28;20457;-73
2023/08/05 08:03:32;;;;;;;3.43;1.90;;;18.40;99.90;;;;;;5074074;28;20506;-76
2023/08/05 08:05:58;;;;;;;13.60;1.87;;;18.30;99.90;;;;;;5085729;28;20203;-76
2023/08/05 08:08:24;;;;;;;4.20;1.80;;;18.30;99.90;;;;;;5077502;28;20193;-76
2023/08/05 08:10:50;;;;;;;7.67;2.00;;;18.30;99.90;;;;;;5085567;28;20873;-76
2023/08/05 08:13:16;;;;;;;3.80;1.90;;;18.70;99.90;;;;;;5082212;28;20417;-76
2023/08/05 08:15:41;;;;;;;2.03;1.13;;;19.00;99.90;;;;;;5090220;28;20307;-76
2023/08/05 08:18:07;;;;;;;2.90;1.57;;;19.10;99.90;;;;;;5077203;28;20184;-76
2023/08/05 08:20:33;;;;;;;4.30;1.93;;;19.40;99.90;;;;;;5091314;28;20195;-76
2023/08/05 08:22:59;;;;;;;2.43;1.57;;;19.40;99.90;;;;;;5091340;28;20614;-76
2023/08/05 08:25:25;;;;;;;3.00;1.57;;;19.60;99.90;;;;;;5090925;28;20203;-76
2023/08/05 08:27:50;;;;;;;5.10;1.67;;;20.60;99.90;;;;;;5090466;28;20502;-76
2023/08/05 08:30:16;;;;;;;2.80;1.63;;;21.60;99.90;;;;;;5091446;28;20854;-76
2023/08/05 08:32:42;;;;;;;2.20;1.30;;;21.50;99.90;;;;;;5090951;28;20525;-70
2023/08/05 08:35:08;;;;;;;2.33;1.40;;;22.00;99.90;;;;;;5090885;28;20191;-70
2023/08/05 08:37:33;;;;;;;7.20;1.33;;;22.30;99.90;;;;;;5091168;28;20175;-70
2023/08/05 08:39:59;;;;;;;4.07;1.67;;;23.40;97.80;;;;;;5079643;28;20217;-70
2023/08/05 08:42:26;;;;;;;3.73;1.83;;;23.90;96.90;;;;;;5088987;28;20183;-70
2023/08/05 08:44:53;;;;;;;3.45;1.58;;;24.10;95.80;;;;;;5090858;28;20680;-70
2023/08/05 08:47:19;;;;;;;2.95;1.67;;;24.20;95.70;;;;;;5091048;28;20195;-71
2023/08/05 08:49:46;;;;;;;2.85;1.30;;;24.50;94.30;;;;;;5091362;28;20937;-70
2023/08/05 08:52:15;;;;;;;2.30;1.17;;;24.10;93.40;;;;;;5091143;28;20211;-70
2023/08/05 08:54:41;;;;;;;3.88;1.70;;;24.10;92.80;;;;;;5090868;28;20195;-70
2023/08/05 08:57:07;;;;;;;4.75;1.77;;;23.70;94.60;;;;;;5091003;28;20176;-70
2023/08/05 08:59:33;;;;;;;4.32;1.67;;;23.90;94.20;;;;;;5091138;28;20259;-70
2023/08/05 09:01:59;;;;;;;2.05;1.02;;;24.10;93.00;;;;;;5090874;28;20270;-70
2023/08/05 09:04:30;;;;;;;2.63;1.25;;;23.70;95.00;;;;;;5090402;28;20187;-70
2023/08/05 09:06:56;;;;;;;2.63;1.33;;;23.40;92.70;;;;;;5091085;28;20212;-73
2023/08/05 09:09:22;;;;;;;1.95;1.13;;;23.60;93.10;;;;;;5091070;28;20183;-71
2023/08/05 09:11:48;;;;;;;2.53;1.00;;;23.80;92.20;;;;;;5085376;28;20326;-70
2023/08/05 09:14:16;;;;;;;2.58;1.17;;;24.00;88.90;;;;;;5082860;28;20184;-70
2023/08/05 09:16:59;;;;;;;1.63;0.82;;;23.50;91.00;;;;;;5087521;28;20282;-70
2023/08/05 09:19:28;;;;;;;1.92;0.98;;;24.30;90.80;;;;;;5076471;28;20466;-72
2023/08/05 09:21:55;;;;;;;4.28;1.45;;;24.70;90.20;;;;;;5095157;28;20172;-72
2023/08/05 09:24:24;;;;;;;9.57;1.52;;;25.10;90.70;;;;;;5094995;28;20657;-73
2023/08/05 09:26:58;;;;;;;2.47;1.15;;;26.00;85.00;;;;;;5095145;28;20204;-72
2023/08/05 09:29:25;;;;;;;1.90;1.13;;;25.90;83.60;;;;;;5094831;28;20716;-72
2023/08/05 09:32:01;;;;;;;2.33;1.27;;;24.80;87.50;;;;;;5092388;28;20218;-72
2023/08/05 09:34:41;;;;;;;2.58;1.23;;;25.30;88.20;;;;;;5092732;28;20175;-72
2023/08/05 09:37:07;;;;;;;3.25;1.02;;;25.90;84.80;;;;;;5082763;28;20182;-72
2023/08/05 09:39:47;;;;;;;1.80;1.00;;;25.50;84.00;;;;;;5094904;28;20271;-72
2023/08/05 09:42:21;;;;;;;3.60;1.15;;;25.70;84.50;;;;;;5095247;28;20179;-71
2023/08/05 09:44:48;;;;;;;1.85;1.00;;;25.60;85.40;;;;;;5088982;28;20203;-71
2023/08/05 09:47:21;;;;;;;1.98;0.90;;;25.00;86.10;;;;;;5088749;28;20200;-71
2023/08/05 09:49:49;;;;;;;1.70;0.90;;;24.30;88.60;;;;;;5083107;28;20210;-70
2023/08/05 09:52:21;;;;;;;3.05;1.45;;;23.70;90.20;;;;;;5085414;28;20172;-71
2023/08/05 09:54:56;;;;;;;2.23;1.10;;;23.20;90.50;;;;;;5092214;28;20532;-70
2023/08/05 09:57:22;;;;;;;1.90;1.13;;;22.50;91.80;;;;;;5088018;28;20629;-70
2023/08/05 09:59:48;;;;;;;1.90;0.90;;;21.90;91.10;;;;;;5093602;28;20264;-70
2023/08/05 10:02:20;;;;;;;2.43;0.90;;;22.00;91.60;;;;;;5091887;28;20206;-70
2023/08/05 10:04:46;;;;;;;5.53;0.97;;;22.20;90.90;;;;;;5092788;28;20955;-75
2023/08/05 10:07:14;;;;;;;1.57;0.73;;;22.20;91.50;;;;;;5090485;28;20809;-72
2023/08/05 10:09:40;;;;;;;1.97;0.90;;;22.50;90.00;;;;;;5085880;28;20410;-72
2023/08/05 10:12:08;;;;;;;3.73;1.53;;;23.10;89.70;;;;;;5084335;28;20410;-71
2023/08/05 10:14:34;;;;;;;3.40;1.37;;;23.00;90.50;;;;;;5092059;28;20174;-71
2023/08/05 10:17:01;;;;;;;3.93;1.03;;;22.80;90.10;;;;;;5088439;28;20540;-71
2023/08/05 10:19:33;;;;;;;1.60;1.07;;;22.50;90.50;;;;;;5093204;28;20430;-70
2023/08/05 10:22:09;;;;;;;3.00;0.87;;;22.50;88.40;;;;;;5093266;28;20436;-71
2023/08/05 10:24:53;;;;;;;2.60;1.27;;;22.50;88.40;;;;;;5093315;28;20821;-71
2023/08/05 10:27:36;;;;;;;4.50;1.03;;;22.40;90.00;;;;;;5093769;28;20789;-72
2023/08/05 10:30:07;;;;;;;2.47;1.10;;;22.50;90.10;;;;;;5082521;28;20767;-72
2023/08/05 10:32:34;;;;;;;2.43;1.20;;;22.70;90.30;;;;;;5087057;28;20499;-72
2023/08/05 10:35:28;;;;;;;2.83;1.23;;;23.00;91.30;;;;;;5067187;28;20438;-71
2023/08/05 10:38:16;;;;;;;1.70;0.83;;;22.90;90.00;;;;;;5072419;28;20415;-70
2023/08/05 10:40:41;;;;;;;2.70;1.30;;;22.60;90.40;;;;;;5084388;28;20419;-70
2023/08/05 10:43:08;;;;;;;2.00;0.90;;;22.40;91.50;;;;;;5086302;28;20900;-70
2023/08/05 10:45:35;;;;;;;4.20;1.37;;;22.40;91.30;;;;;;5090645;28;20213;-70
2023/08/05 10:48:06;;;;;;;2.63;1.20;;;21.90;91.00;;;;;;5091670;28;20877;-70
2023/08/05 10:50:37;;;;;;;3.10;0.97;;;21.60;92.30;;;;;;5092524;28;20445;-70
2023/08/05 10:53:12;;;;;;;3.10;1.23;;;21.60;90.90;;;;;;5092432;28;20414;-70
2023/08/05 10:55:48;;;;;;;1.83;1.10;;;21.40;91.40;;;;;;5075872;28;20422;-70
2023/08/05 10:58:14;;;;;;;1.70;0.97;;;21.10;91.70;;;;;;5091746;28;20421;-71
2023/08/05 11:00:42;;;;;;;1.87;1.00;;;21.00;92.40;;;;;;5087538;28;20419;-71
2023/08/05 11:03:29;;;;;;;5.00;1.60;;;21.00;91.90;;;;;;5091371;28;20474;-71
2023/08/05 11:05:55;;;;;;;2.23;1.10;;;20.90;92.70;;;;;;5089584;28;20518;-71
2023/08/05 11:08:22;;;;;;;3.77;1.07;;;21.00;93.20;;;;;;5058289;28;20576;-71
2023/08/05 11:10:51;;;;;;;3.10;1.23;;;21.00;92.60;;;;;;5075976;28;20460;-71
2023/08/05 11:13:17;;;;;;;1.93;1.03;;;20.80;92.20;;;;;;5078908;28;21220;-71
2023/08/05 11:16:00;;;;;;;2.97;1.20;;;20.60;94.00;;;;;;5088029;28;20943;-71
2023/08/05 11:18:26;;;;;;;3.40;1.40;;;20.80;93.50;;;;;;5082598;28;20457;-71
2023/08/05 11:20:51;;;;;;;7.60;1.50;;;20.90;93.80;;;;;;5088702;28;20470;-71
2023/08/05 11:23:17;;;;;;;2.13;1.10;;;20.80;93.60;;;;;;5086281;28;20270;-71
2023/08/05 11:25:45;;;;;;;2.37;1.03;;;20.90;93.50;;;;;;5085303;28;20582;-71
2023/08/05 11:28:10;;;;;;;4.07;1.80;;;20.90;93.60;;;;;;5090050;28;20199;-71
2023/08/05 11:30:39;;;;;;;3.03;1.50;;;20.70;94.90;;;;;;5090749;28;20900;-72
2023/08/05 11:33:05;;;;;;;2.27;1.50;;;20.80;93.60;;;;;;5084827;28;20188;-72
2023/08/05 11:35:31;;;;;;;5.30;1.63;;;20.70;95.40;;;;;;5088840;28;20418;-72
2023/08/05 11:37:57;;;;;;;1.90;1.00;;;20.70;93.90;;;;;;5089045;28;20426;-72
2023/08/05 11:40:24;;;;;;;3.50;2.03;;;20.90;94.70;;;;;;5089682;28;20180;-72
2023/08/05 11:42:50;;;;;;;3.07;1.93;;;20.90;93.60;;;;;;5075667;28;20305;-72
2023/08/05 11:45:16;;;;;;;4.33;1.40;;;20.90;94.10;;;;;;5082526;28;20461;-72
2023/08/05 11:47:43;;;;;;;3.80;1.70;;;20.90;94.30;;;;;;5082429;28;20579;-72
2023/08/05 11:50:10;;;;;;;5.03;1.57;;;20.80;94.20;;;;;;5083722;28;20410;-72
2023/08/05 11:52:36;;;;;;;2.90;1.43;;;20.80;93.90;;;;;;5085579;28;20880;-72
2023/08/05 11:55:05;;;;;;;2.67;1.40;;;20.60;93.70;;;;;;5089813;28;20421;-72
2023/08/05 11:57:32;;;;;;;2.70;1.10;;;20.50;94.00;;;;;;5076617;28;20414;-72
2023/08/05 12:00:08;;;;;;;1.83;1.00;;;20.50;93.10;;;;;;5089785;28;20414;-72
2023/08/05 12:02:34;;;;;;;12.20;1.67;;;20.30;94.60;;;;;;5084012;28;20403;-72
2023/08/05 12:05:00;;;;;;;4.93;2.00;;;20.20;94.00;;;;;;5084521;28;20414;-72
2023/08/05 12:07:26;;;;;;;2.97;1.50;;;20.10;93.40;;;;;;5088383;28;20513;-72
2023/08/05 12:10:04;;;;;;;3.27;1.53;;;20.00;94.70;;;;;;5089752;28;20418;-72
2023/08/05 12:12:30;;;;;;;5.23;1.50;;;20.00;94.00;;;;;;5089247;28;20458;-72
2023/08/05 12:15:17;;;;;;;2.10;1.20;;;19.80;94.00;;;;;;5088832;28;20876;-71
2023/08/05 12:17:47;;;;;;;2.27;1.10;;;19.90;95.20;;;;;;5076052;28;20271;-71
2023/08/05 12:20:19;;;;;;;3.00;1.60;;;19.80;94.90;;;;;;5089934;28;20433;-71
2023/08/05 12:22:46;;;;;;;3.50;1.47;;;19.70;95.60;;;;;;5089314;28;20471;-71
2023/08/05 12:25:11;;;;;;;2.77;1.63;;;19.80;95.00;;;;;;5089168;28;20422;-71
2023/08/05 12:27:37;;;;;;;2.93;1.30;;;19.70;95.20;;;;;;5089196;28;20425;-72
2023/08/05 12:30:07;;;;;;;3.57;1.80;;;19.70;95.30;;;;;;5083760;28;20180;-72
2023/08/05 12:32:34;;;;;;;2.43;1.20;;;19.70;96.10;;;;;;5081520;28;20577;-72
2023/08/05 12:35:03;;;;;;;3.20;1.60;;;19.80;95.90;;;;;;5082757;28;20442;-71
2023/08/05 12:37:29;;;;;;;3.13;1.57;;;19.80;96.50;;;;;;5088295;28;20928;-72
2023/08/05 12:39:55;;;;;;;2.40;1.40;;;19.90;96.40;;;;;;5081355;28;20427;-72
2023/08/05 12:42:21;;;;;;;4.63;2.10;;;20.00;94.80;;;;;;5086292;28;21403;-72
2023/08/05 12:44:47;;;;;;;4.30;1.90;;;20.00;95.70;;;;;;5081690;28;20889;-72